createdAt,value
2022-10-02T00:03:02.693Z,53
2022-10-02T00:13:03.322Z,48
2022-10-02T00:23:04.092Z,33
2022-10-02T00:33:04.213Z,14
2022-10-02T00:43:04.434Z,0
2022-10-02T00:53:04.600Z,0
2022-10-02T01:03:05.133Z,0
2022-10-02T01:13:05.426Z,0
2022-10-02T01:23:06.131Z,0
2022-10-02T01:33:06.847Z,0
2022-10-02T01:43:07.682Z,0
2022-10-02T01:53:08.713Z,0
2022-10-02T02:03:09.524Z,0
2022-10-02T02:13:09.698Z,0
2022-10-02T02:23:10.086Z,0
2022-10-02T02:33:10.144Z,0
2022-10-02T02:43:10.561Z,0
2022-10-02T02:53:11.006Z,0
2022-10-02T03:03:11.334Z,0
2022-10-02T03:13:12.374Z,0
2022-10-02T03:23:12.676Z,0
2022-10-02T03:33:13.639Z,0
2022-10-02T03:43:13.914Z,0
2022-10-02T03:53:14.015Z,0
2022-10-02T04:03:15.163Z,0
2022-10-02T04:13:15.441Z,0
2022-10-02T04:23:15.793Z,0
2022-10-02T04:33:15.930Z,0
2022-10-02T04:43:16.185Z,0
2022-10-02T04:53:16.218Z,0
2022-10-02T05:03:17.126Z,0
2022-10-02T05:13:18.152Z,0
2022-10-02T05:23:18.953Z,0
2022-10-02T05:33:19.163Z,0
2022-10-02T05:43:19.268Z,0
2022-10-02T05:53:19.897Z,0
2022-10-02T06:13:20.031Z,0
2022-10-02T06:33:20.833Z,0
2022-10-02T06:43:21.075Z,0
2022-10-02T06:53:21.487Z,0
2022-10-02T07:13:23.180Z,0
2022-10-02T07:23:23.328Z,0
2022-10-02T07:33:26.541Z,0
2022-10-02T07:43:23.924Z,0
2022-10-02T07:53:24.621Z,0
2022-10-02T08:03:25.023Z,0
2022-10-02T08:13:25.110Z,0
2022-10-02T08:33:26.133Z,30
2022-10-02T08:33:31.439Z,28
2022-10-02T08:43:31.839Z,40
2022-10-02T08:53:32.259Z,70
2022-10-02T09:03:32.964Z,74
2022-10-02T09:13:33.389Z,66
2022-10-02T09:23:33.610Z,73
2022-10-02T09:33:34.268Z,68
2022-10-02T09:43:34.693Z,90
2022-10-02T09:53:35.133Z,100
2022-10-02T10:03:35.634Z,100
2022-10-02T10:23:36.474Z,100
2022-10-02T10:43:38.241Z,100
2022-10-02T10:53:38.417Z,100
2022-10-02T11:03:38.952Z,100
2022-10-02T11:13:39.431Z,100
2022-10-02T11:23:39.847Z,100
2022-10-02T11:33:40.674Z,100
2022-10-02T11:43:44.020Z,100
2022-10-02T13:23:45.828Z,100
2022-10-02T13:33:46.164Z,100
2022-10-02T14:03:54.747Z,100
2022-10-02T14:13:48.639Z,100
2022-10-02T14:24:02.959Z,100
2022-10-02T14:33:56.283Z,100
2022-10-02T14:44:03.714Z,100
2022-10-02T14:53:57.653Z,100
2022-10-02T15:03:58.672Z,100
2022-10-02T15:13:52.523Z,100
2022-10-02T15:33:52.953Z,100
2022-10-02T15:44:00.858Z,100
2022-10-02T15:53:54.503Z,100
2022-10-02T16:03:54.730Z,100
2022-10-02T16:13:54.779Z,100
2022-10-02T16:33:56.083Z,100
2022-10-02T16:44:10.419Z,100
2022-10-02T16:53:56.909Z,100
2022-10-02T17:13:58.160Z,100
2022-10-02T17:24:05.941Z,100
2022-10-02T17:43:59.850Z,100
2022-10-02T17:54:00.452Z,100
2022-10-02T18:14:01.640Z,100
2022-10-02T18:34:09.992Z,100
2022-10-02T18:44:03.667Z,100
2022-10-02T18:54:04.114Z,100
2022-10-02T19:14:05.571Z,80
2022-10-02T19:24:05.925Z,56
2022-10-02T19:54:07.697Z,8
2022-10-02T20:04:08.722Z,0
2022-10-02T20:14:09.066Z,0
2022-10-02T20:34:10.587Z,0
2022-10-02T20:44:10.762Z,0
2022-10-02T20:54:11.231Z,0
2022-10-02T21:04:11.958Z,0
2022-10-02T21:14:12.994Z,0
2022-10-02T21:24:13.023Z,0
2022-10-02T21:34:13.540Z,0
2022-10-02T21:44:13.869Z,0
2022-10-02T21:54:14.848Z,0
2022-10-02T22:04:15.390Z,0
2022-10-02T22:14:23.211Z,0
2022-10-02T22:24:16.954Z,0
2022-10-02T22:34:20.305Z,0
2022-10-02T22:44:17.749Z,0
2022-10-02T22:54:18.714Z,0
2022-10-02T23:04:19.499Z,0
2022-10-02T23:14:20.113Z,0
2022-10-02T23:34:21.129Z,0
2022-10-02T23:44:21.426Z,0
2022-10-02T23:54:21.655Z,0
